sensor_id;sensor_type;location;lat;lon;timestamp;P1;durP1;ratioP1;P2;durP2;ratioP2
65825;SDS011;52586;-43.152;172.732;2023-05-17T00:01:24;2.90;;;1.70;;
65825;SDS011;52586;-43.152;172.732;2023-05-17T00:03:54;2.03;;;1.73;;
65825;SDS011;52586;-43.152;172.732;2023-05-17T00:06:25;2.33;;;1.52;;
65825;SDS011;52586;-43.152;172.732;2023-05-17T00:08:56;2.55;;;1.42;;
65825;SDS011;52586;-43.152;172.732;2023-05-17T00:11:27;2.67;;;1.40;;
65825;SDS011;52586;-43.152;172.732;2023-05-17T00:14:00;1.88;;;1.50;;
65825;SDS011;52586;-43.152;172.732;2023-05-17T00:16:30;1.88;;;1.50;;
65825;SDS011;52586;-43.152;172.732;2023-05-17T00:19:01;2.55;;;1.40;;
65825;SDS011;52586;-43.152;172.732;2023-05-17T00:21:31;2.28;;;1.50;;
65825;SDS011;52586;-43.152;172.732;2023-05-17T00:24:03;1.88;;;1.40;;
65825;SDS011;52586;-43.152;172.732;2023-05-17T00:26:34;2.60;;;1.42;;
65825;SDS011;52586;-43.152;172.732;2023-05-17T00:29:06;3.80;;;1.60;;
65825;SDS011;52586;-43.152;172.732;2023-05-17T00:31:37;3.17;;;1.60;;
65825;SDS011;52586;-43.152;172.732;2023-05-17T00:34:08;1.38;;;1.25;;
65825;SDS011;52586;-43.152;172.732;2023-05-17T00:36:39;1.95;;;1.40;;
65825;SDS011;52586;-43.152;172.732;2023-05-17T00:39:09;3.13;;;2.00;;
65825;SDS011;52586;-43.152;172.732;2023-05-17T00:41:40;2.60;;;1.20;;
65825;SDS011;52586;-43.152;172.732;2023-05-17T00:44:13;1.90;;;1.50;;
65825;SDS011;52586;-43.152;172.732;2023-05-17T00:46:43;2.03;;;1.45;;
65825;SDS011;52586;-43.152;172.732;2023-05-17T00:49:15;2.10;;;1.30;;
65825;SDS011;52586;-43.152;172.732;2023-05-17T00:51:46;1.75;;;1.33;;
65825;SDS011;52586;-43.152;172.732;2023-05-17T00:54:17;1.77;;;1.45;;
65825;SDS011;52586;-43.152;172.732;2023-05-17T00:56:48;2.28;;;1.77;;
65825;SDS011;52586;-43.152;172.732;2023-05-17T00:59:22;2.22;;;1.42;;
65825;SDS011;52586;-43.152;172.732;2023-05-17T01:01:53;1.77;;;1.50;;
65825;SDS011;52586;-43.152;172.732;2023-05-17T01:04:26;1.55;;;1.45;;
65825;SDS011;52586;-43.152;172.732;2023-05-17T01:06:57;1.65;;;1.40;;
65825;SDS011;52586;-43.152;172.732;2023-05-17T01:09:28;3.08;;;1.40;;
65825;SDS011;52586;-43.152;172.732;2023-05-17T01:12:00;2.22;;;1.35;;
65825;SDS011;52586;-43.152;172.732;2023-05-17T01:14:43;1.60;;;1.40;;
65825;SDS011;52586;-43.152;172.732;2023-05-17T01:17:25;3.08;;;1.67;;
65825;SDS011;52586;-43.152;172.732;2023-05-17T01:20:02;1.73;;;1.20;;
65825;SDS011;52586;-43.152;172.732;2023-05-17T01:22:42;1.70;;;1.30;;
65825;SDS011;52586;-43.152;172.732;2023-05-17T01:25:26;2.78;;;1.40;;
65825;SDS011;52586;-43.152;172.732;2023-05-17T01:28:05;2.83;;;1.23;;
65825;SDS011;52586;-43.152;172.732;2023-05-17T01:30:38;1.70;;;1.60;;
65825;SDS011;52586;-43.152;172.732;2023-05-17T01:33:10;2.90;;;1.50;;
65825;SDS011;52586;-43.152;172.732;2023-05-17T01:35:42;1.58;;;1.35;;
65825;SDS011;52586;-43.152;172.732;2023-05-17T01:38:12;2.53;;;1.60;;
65825;SDS011;52586;-43.152;172.732;2023-05-17T01:40:44;2.05;;;1.40;;
65825;SDS011;52586;-43.152;172.732;2023-05-17T01:43:37;2.20;;;1.60;;
65825;SDS011;52586;-43.152;172.732;2023-05-17T01:46:11;1.92;;;1.73;;
65825;SDS011;52586;-43.152;172.732;2023-05-17T01:48:51;1.95;;;1.35;;
65825;SDS011;52586;-43.152;172.732;2023-05-17T01:51:33;1.45;;;1.23;;
65825;SDS011;52586;-43.152;172.732;2023-05-17T01:54:08;2.15;;;1.33;;
65825;SDS011;52586;-43.152;172.732;2023-05-17T01:56:42;2.80;;;1.48;;
65825;SDS011;52586;-43.152;172.732;2023-05-17T01:59:18;1.50;;;1.40;;
65825;SDS011;52586;-43.152;172.732;2023-05-17T02:01:50;1.50;;;1.20;;
65825;SDS011;52586;-43.152;172.732;2023-05-17T02:04:23;2.65;;;1.45;;
65825;SDS011;52586;-43.152;172.732;2023-05-17T02:06:54;1.50;;;1.35;;
65825;SDS011;52586;-43.152;172.732;2023-05-17T02:09:24;2.50;;;1.60;;
65825;SDS011;52586;-43.152;172.732;2023-05-17T02:11:55;2.72;;;1.40;;
65825;SDS011;52586;-43.152;172.732;2023-05-17T02:14:27;1.60;;;1.25;;
65825;SDS011;52586;-43.152;172.732;2023-05-17T02:16:58;1.55;;;1.40;;
65825;SDS011;52586;-43.152;172.732;2023-05-17T02:19:30;2.05;;;1.30;;
65825;SDS011;52586;-43.152;172.732;2023-05-17T02:22:01;1.52;;;1.20;;
65825;SDS011;52586;-43.152;172.732;2023-05-17T02:24:32;1.98;;;1.58;;
65825;SDS011;52586;-43.152;172.732;2023-05-17T02:27:03;1.55;;;1.30;;
65825;SDS011;52586;-43.152;172.732;2023-05-17T02:29:36;1.35;;;1.20;;
65825;SDS011;52586;-43.152;172.732;2023-05-17T02:32:06;2.05;;;1.45;;
65825;SDS011;52586;-43.152;172.732;2023-05-17T02:34:37;1.92;;;1.42;;
65825;SDS011;52586;-43.152;172.732;2023-05-17T02:37:08;1.85;;;1.30;;
65825;SDS011;52586;-43.152;172.732;2023-05-17T02:39:38;1.80;;;1.10;;
65825;SDS011;52586;-43.152;172.732;2023-05-17T02:42:09;1.92;;;1.40;;
65825;SDS011;52586;-43.152;172.732;2023-05-17T02:44:41;2.30;;;1.20;;
65825;SDS011;52586;-43.152;172.732;2023-05-17T02:47:13;1.63;;;1.40;;
65825;SDS011;52586;-43.152;172.732;2023-05-17T02:49:46;1.77;;;1.40;;
65825;SDS011;52586;-43.152;172.732;2023-05-17T02:52:16;2.38;;;1.40;;
65825;SDS011;52586;-43.152;172.732;2023-05-17T02:54:47;2.17;;;1.55;;
65825;SDS011;52586;-43.152;172.732;2023-05-17T02:57:18;1.73;;;1.10;;
65825;SDS011;52586;-43.152;172.732;2023-05-17T02:59:50;1.48;;;1.27;;
65825;SDS011;52586;-43.152;172.732;2023-05-17T03:02:21;1.33;;;1.23;;
65825;SDS011;52586;-43.152;172.732;2023-05-17T03:04:52;1.15;;;1.05;;
65825;SDS011;52586;-43.152;172.732;2023-05-17T03:07:22;2.25;;;1.40;;
65825;SDS011;52586;-43.152;172.732;2023-05-17T03:09:53;1.95;;;1.42;;
65825;SDS011;52586;-43.152;172.732;2023-05-17T03:12:24;1.77;;;1.10;;
65825;SDS011;52586;-43.152;172.732;2023-05-17T03:14:56;1.90;;;1.20;;
65825;SDS011;52586;-43.152;172.732;2023-05-17T03:17:27;1.27;;;1.17;;
65825;SDS011;52586;-43.152;172.732;2023-05-17T03:19:57;1.70;;;1.20;;
65825;SDS011;52586;-43.152;172.732;2023-05-17T03:22:29;1.48;;;1.23;;
65825;SDS011;52586;-43.152;172.732;2023-05-17T03:25:00;1.33;;;1.00;;
65825;SDS011;52586;-43.152;172.732;2023-05-17T03:27:31;1.20;;;1.08;;
65825;SDS011;52586;-43.152;172.732;2023-05-17T03:30:03;1.67;;;1.38;;
65825;SDS011;52586;-43.152;172.732;2023-05-17T03:32:34;1.35;;;1.25;;
65825;SDS011;52586;-43.152;172.732;2023-05-17T03:35:10;1.60;;;1.05;;
65825;SDS011;52586;-43.152;172.732;2023-05-17T03:37:40;3.08;;;1.20;;
65825;SDS011;52586;-43.152;172.732;2023-05-17T03:40:11;2.65;;;1.00;;
65825;SDS011;52586;-43.152;172.732;2023-05-17T03:42:42;2.15;;;1.10;;
65825;SDS011;52586;-43.152;172.732;2023-05-17T03:45:14;1.95;;;1.00;;
65825;SDS011;52586;-43.152;172.732;2023-05-17T03:47:45;2.67;;;1.15;;
65825;SDS011;52586;-43.152;172.732;2023-05-17T03:50:16;1.95;;;0.90;;
65825;SDS011;52586;-43.152;172.732;2023-05-17T03:52:46;2.25;;;0.95;;
65825;SDS011;52586;-43.152;172.732;2023-05-17T03:55:17;1.67;;;1.10;;
65825;SDS011;52586;-43.152;172.732;2023-05-17T03:57:48;2.90;;;0.85;;
65825;SDS011;52586;-43.152;172.732;2023-05-17T04:00:21;2.83;;;1.13;;
65825;SDS011;52586;-43.152;172.732;2023-05-17T04:02:51;2.40;;;1.23;;
65825;SDS011;52586;-43.152;172.732;2023-05-17T04:05:22;1.52;;;1.15;;
65825;SDS011;52586;-43.152;172.732;2023-05-17T04:07:53;1.65;;;1.08;;
65825;SDS011;52586;-43.152;172.732;2023-05-17T04:10:23;1.05;;;0.95;;
65825;SDS011;52586;-43.152;172.732;2023-05-17T04:12:54;2.15;;;1.10;;
65825;SDS011;52586;-43.152;172.732;2023-05-17T04:15:26;2.10;;;1.40;;
65825;SDS011;52586;-43.152;172.732;2023-05-17T04:17:57;1.95;;;1.17;;
65825;SDS011;52586;-43.152;172.732;2023-05-17T04:20:28;1.55;;;1.20;;
65825;SDS011;52586;-43.152;172.732;2023-05-17T04:22:58;2.33;;;1.30;;
65825;SDS011;52586;-43.152;172.732;2023-05-17T04:25:29;2.15;;;1.50;;
65825;SDS011;52586;-43.152;172.732;2023-05-17T04:28:00;3.65;;;2.15;;
65825;SDS011;52586;-43.152;172.732;2023-05-17T04:30:32;3.67;;;1.90;;
65825;SDS011;52586;-43.152;172.732;2023-05-17T04:33:03;3.72;;;1.65;;
65825;SDS011;52586;-43.152;172.732;2023-05-17T04:35:34;1.60;;;1.30;;
65825;SDS011;52586;-43.152;172.732;2023-05-17T04:38:07;2.50;;;1.50;;
65825;SDS011;52586;-43.152;172.732;2023-05-17T04:40:37;3.92;;;1.52;;
65825;SDS011;52586;-43.152;172.732;2023-05-17T04:43:08;4.05;;;1.77;;
65825;SDS011;52586;-43.152;172.732;2023-05-17T04:45:40;2.60;;;1.30;;
65825;SDS011;52586;-43.152;172.732;2023-05-17T04:48:11;2.08;;;1.40;;
65825;SDS011;52586;-43.152;172.732;2023-05-17T04:50:44;1.70;;;1.25;;
65825;SDS011;52586;-43.152;172.732;2023-05-17T04:53:15;4.18;;;1.67;;
65825;SDS011;52586;-43.152;172.732;2023-05-17T04:55:54;2.38;;;1.42;;
65825;SDS011;52586;-43.152;172.732;2023-05-17T04:58:25;1.80;;;1.17;;
65825;SDS011;52586;-43.152;172.732;2023-05-17T05:00:58;2.38;;;1.35;;
65825;SDS011;52586;-43.152;172.732;2023-05-17T05:03:29;2.03;;;1.40;;
65825;SDS011;52586;-43.152;172.732;2023-05-17T05:06:00;1.90;;;1.13;;
65825;SDS011;52586;-43.152;172.732;2023-05-17T05:08:32;2.40;;;1.52;;
65825;SDS011;52586;-43.152;172.732;2023-05-17T05:11:03;2.15;;;1.45;;
65825;SDS011;52586;-43.152;172.732;2023-05-17T05:13:33;1.30;;;1.20;;
65825;SDS011;52586;-43.152;172.732;2023-05-17T05:16:08;2.45;;;1.63;;
65825;SDS011;52586;-43.152;172.732;2023-05-17T05:18:39;2.38;;;1.27;;
65825;SDS011;52586;-43.152;172.732;2023-05-17T05:21:10;2.45;;;1.48;;
65825;SDS011;52586;-43.152;172.732;2023-05-17T05:23:40;2.15;;;1.42;;
65825;SDS011;52586;-43.152;172.732;2023-05-17T05:26:11;2.42;;;1.55;;
65825;SDS011;52586;-43.152;172.732;2023-05-17T05:28:41;2.40;;;1.40;;
65825;SDS011;52586;-43.152;172.732;2023-05-17T05:31:14;1.75;;;1.30;;
65825;SDS011;52586;-43.152;172.732;2023-05-17T05:33:45;3.03;;;1.40;;
65825;SDS011;52586;-43.152;172.732;2023-05-17T05:36:15;2.38;;;1.70;;
65825;SDS011;52586;-43.152;172.732;2023-05-17T05:38:46;2.65;;;1.75;;
65825;SDS011;52586;-43.152;172.732;2023-05-17T05:41:18;2.63;;;1.60;;
65825;SDS011;52586;-43.152;172.732;2023-05-17T05:43:49;2.50;;;1.65;;
65825;SDS011;52586;-43.152;172.732;2023-05-17T05:46:22;2.67;;;2.10;;
65825;SDS011;52586;-43.152;172.732;2023-05-17T05:48:52;3.25;;;1.98;;
65825;SDS011;52586;-43.152;172.732;2023-05-17T05:51:23;3.35;;;2.42;;
65825;SDS011;52586;-43.152;172.732;2023-05-17T05:53:54;3.38;;;2.30;;
65825;SDS011;52586;-43.152;172.732;2023-05-17T05:56:25;3.03;;;2.30;;
65825;SDS011;52586;-43.152;172.732;2023-05-17T05:58:56;3.67;;;2.55;;
65825;SDS011;52586;-43.152;172.732;2023-05-17T06:01:29;3.58;;;2.45;;
65825;SDS011;52586;-43.152;172.732;2023-05-17T06:04:00;4.53;;;2.67;;
65825;SDS011;52586;-43.152;172.732;2023-05-17T06:06:30;4.82;;;2.58;;
65825;SDS011;52586;-43.152;172.732;2023-05-17T06:09:01;4.13;;;2.85;;
65825;SDS011;52586;-43.152;172.732;2023-05-17T06:11:32;4.22;;;2.47;;
65825;SDS011;52586;-43.152;172.732;2023-05-17T06:14:02;3.78;;;2.72;;
65825;SDS011;52586;-43.152;172.732;2023-05-17T06:16:35;4.93;;;2.67;;
65825;SDS011;52586;-43.152;172.732;2023-05-17T06:19:05;3.72;;;2.80;;
65825;SDS011;52586;-43.152;172.732;2023-05-17T06:21:36;3.50;;;2.78;;
65825;SDS011;52586;-43.152;172.732;2023-05-17T06:24:07;4.40;;;2.97;;
65825;SDS011;52586;-43.152;172.732;2023-05-17T06:26:37;4.00;;;2.72;;
65825;SDS011;52586;-43.152;172.732;2023-05-17T06:29:09;5.13;;;2.75;;
65825;SDS011;52586;-43.152;172.732;2023-05-17T06:31:41;3.25;;;2.72;;
65825;SDS011;52586;-43.152;172.732;2023-05-17T06:34:12;4.60;;;2.90;;
65825;SDS011;52586;-43.152;172.732;2023-05-17T06:36:42;4.75;;;2.95;;
65825;SDS011;52586;-43.152;172.732;2023-05-17T06:39:13;4.40;;;2.90;;
65825;SDS011;52586;-43.152;172.732;2023-05-17T06:41:44;4.35;;;3.20;;
65825;SDS011;52586;-43.152;172.732;2023-05-17T06:44:14;4.03;;;2.85;;
65825;SDS011;52586;-43.152;172.732;2023-05-17T06:46:47;4.13;;;2.72;;
65825;SDS011;52586;-43.152;172.732;2023-05-17T06:49:17;4.40;;;2.90;;
65825;SDS011;52586;-43.152;172.732;2023-05-17T06:51:48;4.43;;;2.88;;
65825;SDS011;52586;-43.152;172.732;2023-05-17T06:54:20;3.58;;;2.40;;
65825;SDS011;52586;-43.152;172.732;2023-05-17T06:56:51;4.00;;;3.13;;
65825;SDS011;52586;-43.152;172.732;2023-05-17T06:59:21;4.28;;;3.25;;
65825;SDS011;52586;-43.152;172.732;2023-05-17T07:01:54;4.38;;;3.08;;
65825;SDS011;52586;-43.152;172.732;2023-05-17T07:04:25;3.83;;;2.95;;
65825;SDS011;52586;-43.152;172.732;2023-05-17T07:06:56;3.47;;;2.83;;
65825;SDS011;52586;-43.152;172.732;2023-05-17T07:09:27;3.88;;;3.15;;
65825;SDS011;52586;-43.152;172.732;2023-05-17T07:11:58;3.47;;;2.90;;
65825;SDS011;52586;-43.152;172.732;2023-05-17T07:14:28;4.68;;;3.28;;
65825;SDS011;52586;-43.152;172.732;2023-05-17T07:17:01;4.55;;;2.90;;
65825;SDS011;52586;-43.152;172.732;2023-05-17T07:19:31;3.35;;;2.55;;
65825;SDS011;52586;-43.152;172.732;2023-05-17T07:22:02;3.97;;;2.85;;
65825;SDS011;52586;-43.152;172.732;2023-05-17T07:24:33;3.40;;;2.92;;
65825;SDS011;52586;-43.152;172.732;2023-05-17T07:27:04;4.10;;;2.92;;
65825;SDS011;52586;-43.152;172.732;2023-05-17T07:29:34;3.58;;;2.65;;
65825;SDS011;52586;-43.152;172.732;2023-05-17T07:32:09;3.30;;;3.00;;
65825;SDS011;52586;-43.152;172.732;2023-05-17T07:34:39;3.78;;;2.60;;
65825;SDS011;52586;-43.152;172.732;2023-05-17T07:37:10;3.13;;;2.47;;
65825;SDS011;52586;-43.152;172.732;2023-05-17T07:39:41;3.13;;;2.40;;
65825;SDS011;52586;-43.152;172.732;2023-05-17T07:42:12;3.13;;;2.42;;
65825;SDS011;52586;-43.152;172.732;2023-05-17T07:44:42;2.83;;;2.47;;
65825;SDS011;52586;-43.152;172.732;2023-05-17T07:47:15;4.00;;;2.80;;
65825;SDS011;52586;-43.152;172.732;2023-05-17T07:49:46;3.80;;;2.90;;
65825;SDS011;52586;-43.152;172.732;2023-05-17T07:52:17;3.33;;;2.72;;
65825;SDS011;52586;-43.152;172.732;2023-05-17T07:54:47;3.55;;;2.50;;
65825;SDS011;52586;-43.152;172.732;2023-05-17T07:57:18;3.25;;;2.47;;
65825;SDS011;52586;-43.152;172.732;2023-05-17T07:59:48;4.13;;;2.58;;
65825;SDS011;52586;-43.152;172.732;2023-05-17T08:02:21;2.80;;;2.50;;
65825;SDS011;52586;-43.152;172.732;2023-05-17T08:04:52;3.80;;;2.60;;
65825;SDS011;52586;-43.152;172.732;2023-05-17T08:07:22;3.58;;;2.63;;
65825;SDS011;52586;-43.152;172.732;2023-05-17T08:09:53;4.07;;;2.72;;
65825;SDS011;52586;-43.152;172.732;2023-05-17T08:12:23;3.03;;;2.35;;
65825;SDS011;52586;-43.152;172.732;2023-05-17T08:14:54;3.03;;;2.40;;
65825;SDS011;52586;-43.152;172.732;2023-05-17T08:17:27;3.60;;;2.60;;
65825;SDS011;52586;-43.152;172.732;2023-05-17T08:19:57;4.35;;;2.95;;
65825;SDS011;52586;-43.152;172.732;2023-05-17T08:22:28;3.58;;;2.20;;
65825;SDS011;52586;-43.152;172.732;2023-05-17T08:24:58;2.50;;;2.20;;
65825;SDS011;52586;-43.152;172.732;2023-05-17T08:27:29;3.17;;;2.65;;
65825;SDS011;52586;-43.152;172.732;2023-05-17T08:30:00;3.20;;;2.63;;
65825;SDS011;52586;-43.152;172.732;2023-05-17T08:32:32;2.90;;;2.58;;
65825;SDS011;52586;-43.152;172.732;2023-05-17T08:35:03;3.55;;;2.75;;
65825;SDS011;52586;-43.152;172.732;2023-05-17T08:37:34;3.17;;;2.85;;
65825;SDS011;52586;-43.152;172.732;2023-05-17T08:40:05;5.95;;;3.53;;
65825;SDS011;52586;-43.152;172.732;2023-05-17T08:42:36;4.60;;;3.22;;
65825;SDS011;52586;-43.152;172.732;2023-05-17T08:45:07;4.38;;;3.20;;
65825;SDS011;52586;-43.152;172.732;2023-05-17T08:47:41;3.83;;;3.15;;
65825;SDS011;52586;-43.152;172.732;2023-05-17T08:50:12;4.90;;;3.50;;
65825;SDS011;52586;-43.152;172.732;2023-05-17T08:52:44;5.00;;;3.47;;
65825;SDS011;52586;-43.152;172.732;2023-05-17T08:55:14;5.25;;;3.45;;
65825;SDS011;52586;-43.152;172.732;2023-05-17T08:57:45;4.57;;;3.17;;
65825;SDS011;52586;-43.152;172.732;2023-05-17T09:00:17;3.70;;;3.28;;
65825;SDS011;52586;-43.152;172.732;2023-05-17T09:02:53;6.65;;;3.38;;
65825;SDS011;52586;-43.152;172.732;2023-05-17T09:05:24;5.18;;;3.33;;
65825;SDS011;52586;-43.152;172.732;2023-05-17T09:07:55;3.70;;;3.00;;
65825;SDS011;52586;-43.152;172.732;2023-05-17T09:10:27;4.65;;;3.40;;
65825;SDS011;52586;-43.152;172.732;2023-05-17T09:12:57;4.35;;;3.40;;
65825;SDS011;52586;-43.152;172.732;2023-05-17T09:15:28;5.38;;;3.63;;
65825;SDS011;52586;-43.152;172.732;2023-05-17T09:18:03;4.10;;;3.15;;
65825;SDS011;52586;-43.152;172.732;2023-05-17T09:20:34;4.80;;;3.17;;
65825;SDS011;52586;-43.152;172.732;2023-05-17T09:23:05;4.72;;;3.20;;
65825;SDS011;52586;-43.152;172.732;2023-05-17T09:25:38;3.85;;;3.08;;
65825;SDS011;52586;-43.152;172.732;2023-05-17T09:28:17;3.92;;;3.10;;
65825;SDS011;52586;-43.152;172.732;2023-05-17T09:30:48;4.45;;;3.47;;
65825;SDS011;52586;-43.152;172.732;2023-05-17T09:33:21;4.80;;;3.42;;
65825;SDS011;52586;-43.152;172.732;2023-05-17T09:35:51;4.60;;;3.10;;
65825;SDS011;52586;-43.152;172.732;2023-05-17T09:38:24;4.30;;;3.60;;
65825;SDS011;52586;-43.152;172.732;2023-05-17T09:40:55;3.88;;;3.20;;
65825;SDS011;52586;-43.152;172.732;2023-05-17T09:43:25;5.00;;;3.80;;
65825;SDS011;52586;-43.152;172.732;2023-05-17T09:45:57;4.30;;;3.33;;
65825;SDS011;52586;-43.152;172.732;2023-05-17T09:48:29;4.05;;;3.00;;
65825;SDS011;52586;-43.152;172.732;2023-05-17T09:51:00;5.25;;;3.30;;
65825;SDS011;52586;-43.152;172.732;2023-05-17T09:53:31;6.45;;;4.28;;
65825;SDS011;52586;-43.152;172.732;2023-05-17T09:56:05;8.15;;;4.57;;
65825;SDS011;52586;-43.152;172.732;2023-05-17T09:58:37;9.88;;;4.32;;
65825;SDS011;52586;-43.152;172.732;2023-05-17T10:01:08;9.30;;;4.57;;
65825;SDS011;52586;-43.152;172.732;2023-05-17T10:03:41;6.32;;;3.80;;
65825;SDS011;52586;-43.152;172.732;2023-05-17T10:06:12;9.70;;;4.30;;
65825;SDS011;52586;-43.152;172.732;2023-05-17T10:08:45;7.15;;;4.13;;
65825;SDS011;52586;-43.152;172.732;2023-05-17T10:11:20;5.32;;;3.63;;
65825;SDS011;52586;-43.152;172.732;2023-05-17T10:14:09;4.93;;;3.58;;
65825;SDS011;52586;-43.152;172.732;2023-05-17T10:16:43;7.22;;;3.78;;
65825;SDS011;52586;-43.152;172.732;2023-05-17T10:19:16;8.48;;;4.47;;
65825;SDS011;52586;-43.152;172.732;2023-05-17T10:21:48;6.47;;;4.30;;
65825;SDS011;52586;-43.152;172.732;2023-05-17T10:24:21;7.97;;;4.75;;
65825;SDS011;52586;-43.152;172.732;2023-05-17T10:26:55;5.97;;;3.97;;
65825;SDS011;52586;-43.152;172.732;2023-05-17T10:29:27;6.35;;;4.25;;
65825;SDS011;52586;-43.152;172.732;2023-05-17T10:31:58;8.02;;;4.07;;
65825;SDS011;52586;-43.152;172.732;2023-05-17T10:34:36;5.93;;;4.10;;
65825;SDS011;52586;-43.152;172.732;2023-05-17T10:37:07;7.55;;;4.72;;
65825;SDS011;52586;-43.152;172.732;2023-05-17T10:39:39;6.55;;;4.07;;
65825;SDS011;52586;-43.152;172.732;2023-05-17T10:42:11;5.93;;;3.67;;
65825;SDS011;52586;-43.152;172.732;2023-05-17T10:44:43;6.40;;;4.07;;
65825;SDS011;52586;-43.152;172.732;2023-05-17T10:47:15;6.10;;;4.63;;
65825;SDS011;52586;-43.152;172.732;2023-05-17T10:49:48;6.72;;;4.50;;
65825;SDS011;52586;-43.152;172.732;2023-05-17T10:52:20;8.73;;;5.00;;
65825;SDS011;52586;-43.152;172.732;2023-05-17T10:54:52;8.15;;;4.82;;
65825;SDS011;52586;-43.152;172.732;2023-05-17T10:57:31;8.05;;;5.15;;
65825;SDS011;52586;-43.152;172.732;2023-05-17T11:00:04;6.30;;;4.43;;
65825;SDS011;52586;-43.152;172.732;2023-05-17T11:02:39;8.90;;;5.15;;
65825;SDS011;52586;-43.152;172.732;2023-05-17T11:05:23;6.90;;;4.65;;
65825;SDS011;52586;-43.152;172.732;2023-05-17T11:13:44;6.65;;;4.68;;
65825;SDS011;52586;-43.152;172.732;2023-05-17T11:16:22;7.35;;;4.50;;
65825;SDS011;52586;-43.152;172.732;2023-05-17T11:18:57;7.63;;;4.85;;
65825;SDS011;52586;-43.152;172.732;2023-05-17T11:21:39;7.80;;;5.07;;
65825;SDS011;52586;-43.152;172.732;2023-05-17T11:24:15;6.13;;;4.47;;
65825;SDS011;52586;-43.152;172.732;2023-05-17T11:26:53;7.60;;;4.88;;
65825;SDS011;52586;-43.152;172.732;2023-05-17T11:29:28;7.57;;;4.88;;
65825;SDS011;52586;-43.152;172.732;2023-05-17T11:31:58;7.13;;;4.63;;
65825;SDS011;52586;-43.152;172.732;2023-05-17T11:34:34;6.00;;;4.65;;
65825;SDS011;52586;-43.152;172.732;2023-05-17T11:37:11;6.25;;;4.22;;
65825;SDS011;52586;-43.152;172.732;2023-05-17T11:40:02;6.85;;;4.50;;
65825;SDS011;52586;-43.152;172.732;2023-05-17T11:42:33;6.78;;;4.45;;
65825;SDS011;52586;-43.152;172.732;2023-05-17T11:45:05;5.85;;;4.40;;
65825;SDS011;52586;-43.152;172.732;2023-05-17T11:47:38;6.10;;;4.15;;
65825;SDS011;52586;-43.152;172.732;2023-05-17T11:50:09;6.32;;;4.57;;
65825;SDS011;52586;-43.152;172.732;2023-05-17T11:52:43;5.85;;;4.22;;
65825;SDS011;52586;-43.152;172.732;2023-05-17T11:55:13;7.65;;;4.82;;
65825;SDS011;52586;-43.152;172.732;2023-05-17T11:57:45;6.30;;;3.90;;
65825;SDS011;52586;-43.152;172.732;2023-05-17T12:00:16;5.32;;;3.80;;
65825;SDS011;52586;-43.152;172.732;2023-05-17T12:02:54;7.35;;;3.70;;
65825;SDS011;52586;-43.152;172.732;2023-05-17T12:05:25;5.28;;;4.22;;
65825;SDS011;52586;-43.152;172.732;2023-05-17T12:07:57;5.65;;;4.05;;
65825;SDS011;52586;-43.152;172.732;2023-05-17T12:10:28;4.50;;;3.78;;
65825;SDS011;52586;-43.152;172.732;2023-05-17T12:12:58;5.32;;;4.40;;
65825;SDS011;52586;-43.152;172.732;2023-05-17T12:15:29;6.20;;;3.70;;
65825;SDS011;52586;-43.152;172.732;2023-05-17T12:18:01;4.82;;;3.92;;
65825;SDS011;52586;-43.152;172.732;2023-05-17T12:20:31;5.80;;;3.75;;
65825;SDS011;52586;-43.152;172.732;2023-05-17T12:23:05;5.15;;;3.95;;
65825;SDS011;52586;-43.152;172.732;2023-05-17T12:25:36;4.35;;;3.28;;
65825;SDS011;52586;-43.152;172.732;2023-05-17T12:28:14;5.82;;;3.95;;
65825;SDS011;52586;-43.152;172.732;2023-05-17T12:30:51;4.32;;;3.80;;
65825;SDS011;52586;-43.152;172.732;2023-05-17T12:33:23;5.75;;;4.18;;
65825;SDS011;52586;-43.152;172.732;2023-05-17T12:35:54;6.55;;;3.63;;
65825;SDS011;52586;-43.152;172.732;2023-05-17T12:38:26;5.05;;;4.10;;
65825;SDS011;52586;-43.152;172.732;2023-05-17T12:41:00;5.93;;;4.25;;
65825;SDS011;52586;-43.152;172.732;2023-05-17T12:43:32;5.43;;;3.88;;
65825;SDS011;52586;-43.152;172.732;2023-05-17T12:46:04;4.88;;;4.05;;
65825;SDS011;52586;-43.152;172.732;2023-05-17T12:48:36;4.25;;;3.47;;
65825;SDS011;52586;-43.152;172.732;2023-05-17T12:51:08;4.70;;;3.35;;
65825;SDS011;52586;-43.152;172.732;2023-05-17T12:53:42;5.28;;;3.80;;
65825;SDS011;52586;-43.152;172.732;2023-05-17T12:56:17;9.02;;;4.00;;
65825;SDS011;52586;-43.152;172.732;2023-05-17T12:59:06;4.30;;;3.70;;
65825;SDS011;52586;-43.152;172.732;2023-05-17T13:01:42;4.03;;;3.50;;
65825;SDS011;52586;-43.152;172.732;2023-05-17T13:04:13;4.32;;;3.35;;
65825;SDS011;52586;-43.152;172.732;2023-05-17T13:06:45;4.82;;;3.25;;
65825;SDS011;52586;-43.152;172.732;2023-05-17T13:09:19;4.60;;;3.67;;
65825;SDS011;52586;-43.152;172.732;2023-05-17T13:11:50;4.53;;;3.78;;
65825;SDS011;52586;-43.152;172.732;2023-05-17T13:14:34;5.10;;;3.83;;
65825;SDS011;52586;-43.152;172.732;2023-05-17T13:17:05;5.78;;;3.67;;
65825;SDS011;52586;-43.152;172.732;2023-05-17T13:19:36;5.38;;;4.00;;
65825;SDS011;52586;-43.152;172.732;2023-05-17T13:22:07;4.63;;;3.88;;
65825;SDS011;52586;-43.152;172.732;2023-05-17T13:24:40;4.15;;;3.30;;
65825;SDS011;52586;-43.152;172.732;2023-05-17T13:27:11;4.28;;;3.60;;
65825;SDS011;52586;-43.152;172.732;2023-05-17T13:29:42;4.43;;;3.28;;
65825;SDS011;52586;-43.152;172.732;2023-05-17T13:32:13;4.78;;;3.22;;
65825;SDS011;52586;-43.152;172.732;2023-05-17T13:34:44;4.93;;;3.38;;
65825;SDS011;52586;-43.152;172.732;2023-05-17T13:37:14;4.88;;;3.42;;
65825;SDS011;52586;-43.152;172.732;2023-05-17T13:39:48;4.65;;;3.80;;
65825;SDS011;52586;-43.152;172.732;2023-05-17T13:42:19;5.03;;;3.50;;
65825;SDS011;52586;-43.152;172.732;2023-05-17T13:44:50;4.10;;;3.30;;
65825;SDS011;52586;-43.152;172.732;2023-05-17T13:47:21;5.05;;;3.22;;
65825;SDS011;52586;-43.152;172.732;2023-05-17T13:49:52;5.13;;;3.63;;
65825;SDS011;52586;-43.152;172.732;2023-05-17T13:52:22;4.95;;;3.70;;
65825;SDS011;52586;-43.152;172.732;2023-05-17T13:54:55;4.72;;;3.53;;
65825;SDS011;52586;-43.152;172.732;2023-05-17T13:57:25;4.50;;;3.22;;
65825;SDS011;52586;-43.152;172.732;2023-05-17T13:59:56;3.88;;;3.15;;
65825;SDS011;52586;-43.152;172.732;2023-05-17T14:02:27;4.57;;;3.08;;
65825;SDS011;52586;-43.152;172.732;2023-05-17T14:04:57;4.30;;;3.50;;
65825;SDS011;52586;-43.152;172.732;2023-05-17T14:07:28;4.53;;;3.45;;
65825;SDS011;52586;-43.152;172.732;2023-05-17T14:10:00;5.30;;;3.50;;
65825;SDS011;52586;-43.152;172.732;2023-05-17T14:12:31;4.18;;;3.20;;
65825;SDS011;52586;-43.152;172.732;2023-05-17T14:15:02;4.35;;;3.40;;
65825;SDS011;52586;-43.152;172.732;2023-05-17T14:17:33;3.38;;;2.80;;
65825;SDS011;52586;-43.152;172.732;2023-05-17T14:20:04;4.75;;;3.28;;
65825;SDS011;52586;-43.152;172.732;2023-05-17T14:22:35;3.67;;;3.10;;
65825;SDS011;52586;-43.152;172.732;2023-05-17T14:25:08;3.72;;;3.00;;
65825;SDS011;52586;-43.152;172.732;2023-05-17T14:27:39;4.05;;;3.58;;
65825;SDS011;52586;-43.152;172.732;2023-05-17T14:30:10;3.65;;;2.80;;
65825;SDS011;52586;-43.152;172.732;2023-05-17T14:32:42;3.92;;;3.35;;
65825;SDS011;52586;-43.152;172.732;2023-05-17T14:35:13;3.35;;;2.95;;
65825;SDS011;52586;-43.152;172.732;2023-05-17T14:37:44;4.18;;;3.38;;
65825;SDS011;52586;-43.152;172.732;2023-05-17T14:40:16;3.78;;;2.95;;
65825;SDS011;52586;-43.152;172.732;2023-05-17T14:42:47;3.10;;;2.50;;